Time;durP1;ratioP1;P1;durP2;ratioP2;P2;SDS_P1;SDS_P2;PMS_P1;PMS_P2;Temp;Humidity;BMP_temperature;BMP_pressure;BME280_temperature;BME280_humidity;BME280_pressure;Samples;Min_cycle;Max_cycle;Signal;HPM_P1;HPM_P2
2022/11/12 00:00:21;;;;;;;;;;;;;;;13.50;50.69;100125.09;4995052;28;19922;-70
2022/11/12 00:02:47;;;;;;;;;;;;;;;13.50;50.73;100132.13;4996448;28;20400;-70
2022/11/12 00:05:12;;;;;;;;;;;;;;;13.51;50.52;100125.97;4991694;28;19922;-70
2022/11/12 00:07:37;;;;;;;;;;;;;;;13.51;50.66;100128.59;4991804;28;19918;-70
2022/11/12 00:10:03;;;;;;;;;;;;;;;13.49;50.34;100126.06;4977097;28;19918;-70
2022/11/12 00:12:28;;;;;;;;;;;;;;;13.49;50.28;100130.44;4975508;28;20282;-71
2022/11/12 00:14:53;;;;;;;;;;;;;;;13.49;50.28;100131.31;4991732;28;19918;-71
2022/11/12 00:17:19;;;;;;;;;;;;;;;13.49;50.48;100119.94;4991818;28;20369;-71
2022/11/12 00:19:44;;;;;;;;;;;;;;;13.48;50.68;100126.16;4991810;28;19926;-71
2022/11/12 00:22:09;;;;;;;;;;;;;;;13.45;50.96;100124.56;4976582;28;19925;-70
2022/11/12 00:24:35;;;;;;;;;;;;;;;13.44;51.36;100122.91;4972366;28;19922;-70
2022/11/12 00:27:00;;;;;;;;;;;;;;;13.44;51.52;100122.06;4958891;28;19918;-70
2022/11/12 00:29:25;;;;;;;;;;;;;;;13.43;51.58;100110.72;4958649;28;19918;-70
2022/11/12 00:31:50;;;;;;;;;;;;;;;13.42;51.78;100118.69;4975132;28;20397;-70
2022/11/12 00:34:16;;;;;;;;;;;;;;;13.41;51.97;100127.50;4974583;28;20361;-70
2022/11/12 00:36:41;;;;;;;;;;;;;;;13.39;52.21;100122.34;4958764;28;19961;-70
2022/11/12 00:39:06;;;;;;;;;;;;;;;13.38;52.30;100115.44;4958776;28;19988;-70
2022/11/12 00:41:32;;;;;;;;;;;;;;;13.35;52.53;100123.50;4974802;28;19918;-70
2022/11/12 00:43:57;;;;;;;;;;;;;;;13.35;52.68;100126.13;4976139;28;19918;-70
2022/11/12 00:46:22;;;;;;;;;;;;;;;13.32;52.77;100119.28;4958268;28;19918;-72
2022/11/12 00:48:47;;;;;;;;;;;;;;;13.31;52.73;100108.88;4976272;28;19926;-70
2022/11/12 00:51:13;;;;;;;;;;;;;;;13.30;52.65;100112.44;4975446;28;19973;-71
2022/11/12 00:53:38;;;;;;;;;;;;;;;13.29;52.56;100119.47;4974784;28;20456;-72
2022/11/12 00:56:04;;;;;;;;;;;;;;;13.28;52.64;100109.91;4974569;28;19928;-72
2022/11/12 00:58:30;;;;;;;;;;;;;;;13.28;52.92;100133.50;4958517;28;19922;-71
2022/11/12 01:00:55;;;;;;;;;;;;;;;13.28;52.67;100124.81;4958583;28;19961;-71
2022/11/12 01:03:20;;;;;;;;;;;;;;;13.25;52.93;100133.75;4974653;28;20002;-71
2022/11/12 01:05:46;;;;;;;;;;;;;;;13.23;52.78;100130.34;4975784;28;19922;-71
2022/11/12 01:08:11;;;;;;;;;;;;;;;13.23;52.87;100124.28;4958471;28;19945;-71
2022/11/12 01:10:36;;;;;;;;;;;;;;;13.23;52.68;100121.66;4975580;28;20301;-71
2022/11/12 01:13:02;;;;;;;;;;;;;;;13.22;52.75;100126.06;4974414;28;19965;-72
2022/11/12 01:15:27;;;;;;;;;;;;;;;13.20;52.52;100126.16;4975520;28;20021;-69
2022/11/12 01:17:52;;;;;;;;;;;;;;;13.21;52.92;100119.97;4975733;28;19918;-71
2022/11/12 01:20:17;;;;;;;;;;;;;;;13.21;53.03;100106.03;4975338;28;20397;-70
2022/11/12 01:22:43;;;;;;;;;;;;;;;13.21;52.81;100095.53;4975529;28;19918;-70
2022/11/12 01:25:08;;;;;;;;;;;;;;;13.21;52.79;100106.03;4975196;28;20484;-70
2022/11/12 01:27:33;;;;;;;;;;;;;;;13.20;52.77;100106.94;4974541;28;20429;-70
2022/11/12 01:29:59;;;;;;;;;;;;;;;13.19;52.95;100098.25;4974423;28;19926;-70
2022/11/12 01:32:24;;;;;;;;;;;;;;;13.18;52.81;100088.69;4993402;28;19918;-71
2022/11/12 01:34:49;;;;;;;;;;;;;;;13.21;52.76;100092.91;4993597;28;19917;-70
2022/11/12 01:37:15;;;;;;;;;;;;;;;13.20;52.82;100102.56;4993458;28;19917;-72
2022/11/12 01:39:40;;;;;;;;;;;;;;;13.18;52.61;100091.31;4976720;28;20001;-71
2022/11/12 01:42:05;;;;;;;;;;;;;;;13.18;52.48;100087.88;4977334;28;19943;-70
2022/11/12 01:44:31;;;;;;;;;;;;;;;13.16;52.29;100090.59;4994600;28;19922;-71
2022/11/12 01:46:56;;;;;;;;;;;;;;;13.14;52.16;100094.25;4976200;28;19953;-69
2022/11/12 01:49:37;;;;;;;;;;;;;;;13.12;51.80;100088.25;4994238;28;19924;-72
2022/11/12 01:52:25;;;;;;;;;;;;;;;13.10;51.65;100088.38;4994325;28;19918;-69
2022/11/12 01:54:52;;;;;;;;;;;;;;;13.07;51.37;100083.31;4976564;28;19961;-71
2022/11/12 01:57:19;;;;;;;;;;;;;;;13.07;51.36;100085.94;4976949;28;19926;-71
2022/11/12 01:59:45;;;;;;;;;;;;;;;13.06;50.75;100086.88;4993250;28;19926;-71
2022/11/12 02:02:11;;;;;;;;;;;;;;;13.04;50.73;100088.75;4993262;28;19961;-69
2022/11/12 02:04:37;;;;;;;;;;;;;;;13.05;50.79;100097.50;4977011;28;19918;-69
2022/11/12 02:07:02;;;;;;;;;;;;;;;13.06;50.71;100084.25;4978802;28;19922;-69
2022/11/12 02:09:28;;;;;;;;;;;;;;;13.06;50.55;100086.88;4957432;28;19918;-69
2022/11/12 02:11:53;;;;;;;;;;;;;;;13.07;50.36;100087.72;4973681;28;19925;-69
2022/11/12 02:14:18;;;;;;;;;;;;;;;13.07;50.39;100082.50;4957251;28;20532;-69
2022/11/12 02:16:44;;;;;;;;;;;;;;;13.06;50.33;100083.41;4973623;28;19925;-70
2022/11/12 02:19:10;;;;;;;;;;;;;;;13.05;50.21;100092.25;4973525;28;20290;-69
2022/11/12 02:21:35;;;;;;;;;;;;;;;13.06;49.92;100091.28;4957304;28;20013;-69
2022/11/12 02:24:04;;;;;;;;;;;;;;;13.04;49.85;100088.75;4957681;28;20384;-69
2022/11/12 02:26:33;;;;;;;;;;;;;;;13.02;50.10;100094.09;4974690;28;20028;-71
2022/11/12 02:28:58;;;;;;;;;;;;;;;13.00;50.26;100082.88;4957214;28;19973;-70
2022/11/12 02:31:23;;;;;;;;;;;;;;;13.00;50.02;100084.69;4973360;28;19926;-71
2022/11/12 02:33:49;;;;;;;;;;;;;;;13.00;50.25;100088.13;4973200;28;20388;-70
2022/11/12 02:36:14;;;;;;;;;;;;;;;13.00;49.94;100088.13;4956780;28;20361;-71
2022/11/12 02:38:39;;;;;;;;;;;;;;;12.99;50.04;100089.06;4973436;28;19919;-70
2022/11/12 02:41:05;;;;;;;;;;;;;;;12.99;50.03;100088.22;4973278;28;19985;-70
2022/11/12 02:43:30;;;;;;;;;;;;;;;12.99;49.88;100078.56;4974433;28;19922;-71
2022/11/12 02:45:55;;;;;;;;;;;;;;;12.99;49.45;100096.91;4974319;28;20282;-71
2022/11/12 02:48:20;;;;;;;;;;;;;;;12.99;49.57;100096.09;4973135;28;19925;-71
2022/11/12 02:50:46;;;;;;;;;;;;;;;12.98;49.66;100103.13;4972803;28;19957;-71
2022/11/12 02:53:11;;;;;;;;;;;;;;;12.98;49.44;100081.28;4973297;28;19958;-71
2022/11/12 02:55:37;;;;;;;;;;;;;;;12.97;49.44;100096.19;4972908;28;19925;-71
2022/11/12 02:58:02;;;;;;;;;;;;;;;12.97;49.23;100083.09;4956199;28;19922;-70
2022/11/12 03:00:27;;;;;;;;;;;;;;;12.97;49.11;100088.31;4972984;28;19945;-70
2022/11/12 03:02:59;;;;;;;;;;;;;;;13.00;49.09;100100.41;4956740;28;19925;-70
2022/11/12 03:05:25;;;;;;;;;;;;;;;13.00;48.84;100089.91;4972838;28;20008;-70
2022/11/12 03:07:54;;;;;;;;;;;;;;;13.00;48.98;100095.16;4973264;28;19969;-70
2022/11/12 03:10:19;;;;;;;;;;;;;;;12.99;49.02;100093.47;4972639;28;19929;-70
2022/11/12 03:12:44;;;;;;;;;;;;;;;13.00;48.74;100105.66;4972721;28;19918;-70
2022/11/12 03:15:10;;;;;;;;;;;;;;;12.97;48.92;100090.94;4973907;28;20408;-70
2022/11/12 03:17:35;;;;;;;;;;;;;;;12.98;49.21;100116.22;4972606;28;20021;-71
2022/11/12 03:20:00;;;;;;;;;;;;;;;12.96;48.95;100112.00;4991994;28;19929;-71
2022/11/12 03:22:26;;;;;;;;;;;;;;;12.96;49.42;100109.41;5005235;28;19918;-70
2022/11/12 03:24:51;;;;;;;;;;;;;;;12.94;49.51;100121.75;5005475;28;19926;-70
2022/11/12 03:27:16;;;;;;;;;;;;;;;12.91;49.45;100120.16;4973807;28;19918;-70
2022/11/12 03:29:42;;;;;;;;;;;;;;;12.88;49.96;100120.38;5004829;28;20305;-70
2022/11/12 03:32:07;;;;;;;;;;;;;;;12.87;50.21;100108.19;4973737;28;19925;-70
2022/11/12 03:34:32;;;;;;;;;;;;;;;12.83;50.13;100127.69;5004696;28;19918;-70
2022/11/12 03:36:57;;;;;;;;;;;;;;;12.81;50.51;100117.31;5004846;28;19930;-71
2022/11/12 03:39:23;;;;;;;;;;;;;;;12.79;50.84;100119.19;4972296;28;19981;-71
2022/11/12 03:41:48;;;;;;;;;;;;;;;12.79;50.85;100120.94;5005272;28;20302;-70
2022/11/12 03:44:13;;;;;;;;;;;;;;;12.77;51.17;100112.34;4973475;28;19944;-71
2022/11/12 03:46:39;;;;;;;;;;;;;;;12.74;51.17;100109.91;5004911;28;19926;-71
2022/11/12 03:49:04;;;;;;;;;;;;;;;12.71;51.46;100113.56;4988391;28;19961;-71
2022/11/12 03:51:29;;;;;;;;;;;;;;;12.71;51.61;100124.03;4972370;28;19925;-71
2022/11/12 03:53:54;;;;;;;;;;;;;;;12.70;51.69;100132.00;5004715;28;19918;-73
2022/11/12 03:56:20;;;;;;;;;;;;;;;12.68;52.18;100119.00;4972594;28;19996;-71
2022/11/12 03:58:45;;;;;;;;;;;;;;;12.64;52.46;100123.59;4972152;28;20472;-71
2022/11/12 04:01:10;;;;;;;;;;;;;;;12.61;52.41;100129.03;4973364;28;19957;-71
2022/11/12 04:03:36;;;;;;;;;;;;;;;12.61;52.38;100129.03;5004410;28;19928;-71
2022/11/12 04:08:45;;;;;;;;;;;;;;;12.58;52.90;100134.47;4973681;28;20049;-70
2022/11/12 04:11:11;;;;;;;;;;;;;;;12.56;52.59;100128.47;5008576;28;19926;-71
2022/11/12 04:13:37;;;;;;;;;;;;;;;12.55;52.62;100133.81;5008115;28;19969;-71
2022/11/12 04:21:50;;;;;;;;;;;;;;;12.44;52.56;100124.84;5003571;28;20266;-71
2022/11/12 04:27:05;;;;;;;;;;;;;;;12.40;52.53;100112.88;4976679;28;19927;-70
2022/11/12 04:32:15;;;;;;;;;;;;;;;12.39;52.50;100119.03;4995234;28;20351;-70
2022/11/12 04:34:40;;;;;;;;;;;;;;;12.40;52.64;100110.25;4994690;28;19918;-72
2022/11/12 04:37:05;;;;;;;;;;;;;;;12.40;52.67;100114.66;4995784;28;19918;-71
2022/11/12 04:39:31;;;;;;;;;;;;;;;12.41;52.84;100109.34;4977938;28;20357;-72
2022/11/12 04:44:58;;;;;;;;;;;;;;;12.43;52.48;100115.31;4994876;28;20027;-72
2022/11/12 04:47:28;;;;;;;;;;;;;;;12.40;52.53;100105.03;4994913;28;19918;-76
2022/11/12 04:49:53;;;;;;;;;;;;;;;12.41;52.73;100117.19;4978449;28;20381;-71
2022/11/12 04:52:18;;;;;;;;;;;;;;;12.42;52.54;100118.84;4994587;28;19918;-71
2022/11/12 04:54:44;;;;;;;;;;;;;;;12.42;52.73;100121.47;4994507;28;19917;-71
2022/11/12 04:57:09;;;;;;;;;;;;;;;12.42;53.01;100125.88;4995977;28;19973;-71
2022/11/12 04:59:34;;;;;;;;;;;;;;;12.43;52.83;100127.53;4995852;28;20009;-72
2022/11/12 05:01:59;;;;;;;;;;;;;;;12.42;52.77;100131.13;4994673;28;19918;-71
2022/11/12 05:04:28;;;;;;;;;;;;;;;12.42;53.23;100136.34;4995587;28;19921;-71
2022/11/12 05:06:54;;;;;;;;;;;;;;;12.41;52.95;100129.44;4977297;28;19988;-72
2022/11/12 05:09:20;;;;;;;;;;;;;;;12.42;53.04;100138.97;4978089;28;19922;-71
2022/11/12 05:11:45;;;;;;;;;;;;;;;12.41;53.33;100140.75;4978039;28;19941;-71
2022/11/12 05:14:11;;;;;;;;;;;;;;;12.43;53.15;100143.25;4978051;28;20301;-72
2022/11/12 05:16:36;;;;;;;;;;;;;;;12.42;53.58;100144.22;4994539;28;19918;-72
2022/11/12 05:19:01;;;;;;;;;;;;;;;12.41;53.24;100143.38;4977355;28;20309;-71
2022/11/12 05:24:11;;;;;;;;;;;;;;;12.40;53.57;100153.94;4994222;28;20292;-71
2022/11/12 05:26:36;;;;;;;;;;;;;;;12.41;53.53;100155.63;4995132;28;20004;-71
2022/11/12 05:29:01;;;;;;;;;;;;;;;12.39;53.96;100165.34;4993649;28;19918;-71
2022/11/12 05:31:27;;;;;;;;;;;;;;;12.39;53.99;100170.59;4977604;28;19925;-71
2022/11/12 05:33:52;;;;;;;;;;;;;;;12.38;53.82;100164.53;4977653;28;19974;-71
2022/11/12 05:36:17;;;;;;;;;;;;;;;12.37;54.25;100167.22;4993700;28;19941;-70
2022/11/12 05:38:42;;;;;;;;;;;;;;;12.38;54.02;100168.91;4994729;28;19918;-72
2022/11/12 05:41:08;;;;;;;;;;;;;;;12.38;54.24;100171.50;4977331;28;19918;-71
2022/11/12 05:43:33;;;;;;;;;;;;;;;12.36;54.05;100174.22;4994253;28;19928;-71
2022/11/12 05:45:58;;;;;;;;;;;;;;;12.38;54.15;100177.63;4994059;28;19968;-71
2022/11/12 05:48:24;;;;;;;;;;;;;;;12.37;54.42;100181.16;4994949;28;20391;-71
2022/11/12 05:50:52;;;;;;;;;;;;;;;12.39;54.52;100181.91;4993885;28;20392;-72
2022/11/12 05:53:17;;;;;;;;;;;;;;;12.40;54.35;100193.22;4994108;28;19976;-71
2022/11/12 05:55:43;;;;;;;;;;;;;;;12.40;54.36;100188.81;4993011;28;19918;-73
2022/11/12 05:58:08;;;;;;;;;;;;;;;12.39;54.56;100189.75;4976718;28;20273;-71
2022/11/12 06:00:37;;;;;;;;;;;;;;;12.40;54.64;100194.06;4995028;28;19924;-72
2022/11/12 06:03:12;;;;;;;;;;;;;;;12.41;54.52;100203.63;4976988;28;19925;-71
2022/11/12 06:05:37;;;;;;;;;;;;;;;12.41;54.41;100200.13;4993271;28;19918;-70
2022/11/12 06:08:04;;;;;;;;;;;;;;;12.42;54.36;100196.59;4993302;28;19918;-71
2022/11/12 06:10:29;;;;;;;;;;;;;;;12.42;54.74;100213.13;4993175;28;19925;-70
2022/11/12 06:12:54;;;;;;;;;;;;;;;12.41;54.44;100208.84;4993584;28;19922;-70
2022/11/12 06:15:20;;;;;;;;;;;;;;;12.42;54.47;100207.91;4992932;28;20303;-71
2022/11/12 06:17:45;;;;;;;;;;;;;;;12.43;54.51;100208.72;4972784;28;19933;-71
2022/11/12 06:20:10;;;;;;;;;;;;;;;12.43;54.94;100213.97;4989755;28;19918;-70
2022/11/12 06:22:36;;;;;;;;;;;;;;;12.44;54.52;100213.88;4973368;28;19918;-70
2022/11/12 06:25:02;;;;;;;;;;;;;;;12.44;54.62;100220.91;4989466;28;20299;-70
2022/11/12 06:27:27;;;;;;;;;;;;;;;12.41;55.11;100215.84;4989570;28;19918;-71
2022/11/12 06:29:52;;;;;;;;;;;;;;;12.40;54.96;100214.19;4973848;28;20365;-70
2022/11/12 06:32:18;;;;;;;;;;;;;;;12.39;55.18;100221.19;4974209;28;19918;-70
2022/11/12 06:34:43;;;;;;;;;;;;;;;12.39;55.43;100217.72;4972996;28;19957;-70
2022/11/12 06:37:08;;;;;;;;;;;;;;;12.38;55.09;100211.66;4974338;28;20018;-70
2022/11/12 06:39:33;;;;;;;;;;;;;;;12.38;55.38;100203.78;4956825;28;19922;-70
2022/11/12 06:42:00;;;;;;;;;;;;;;;12.40;55.57;100208.94;4989011;28;19989;-70
2022/11/12 06:44:26;;;;;;;;;;;;;;;12.40;55.34;100201.09;4972751;28;19922;-71
2022/11/12 06:46:51;;;;;;;;;;;;;;;12.42;55.73;100200.03;4972786;28;20404;-73
2022/11/12 06:49:16;;;;;;;;;;;;;;;12.44;55.47;100195.53;4989140;28;19972;-72
2022/11/12 06:51:42;;;;;;;;;;;;;;;12.45;55.60;100197.22;4989521;28;19918;-69
2022/11/12 06:54:07;;;;;;;;;;;;;;;12.47;55.71;100200.59;4968957;28;20370;-69
2022/11/12 06:56:32;;;;;;;;;;;;;;;12.50;56.03;100194.34;4956675;28;19928;-70
2022/11/12 06:58:58;;;;;;;;;;;;;;;12.51;55.68;100193.41;4956700;28;19926;-74
2022/11/12 07:01:23;;;;;;;;;;;;;;;12.53;55.91;100190.69;4956806;28;20004;-71
2022/11/12 07:03:50;;;;;;;;;;;;;;;12.54;55.73;100194.97;4973574;28;19922;-70
2022/11/12 07:06:19;;;;;;;;;;;;;;;12.55;56.34;100186.19;4973994;28;19926;-75
2022/11/12 07:08:45;;;;;;;;;;;;;;;12.77;60.92;100194.41;4969156;28;19925;-72
2022/11/12 07:11:10;;;;;;;;;;;;;;;12.99;59.75;100201.78;4984289;28;19926;-77
2022/11/12 07:13:35;;;;;;;;;;;;;;;13.00;58.52;100194.78;4980899;28;20423;-75
2022/11/12 07:16:01;;;;;;;;;;;;;;;13.08;58.74;100202.97;4966712;28;19930;-78
2022/11/12 07:18:26;;;;;;;;;;;;;;;13.07;57.96;100201.28;4979436;28;20301;-75
2022/11/12 07:20:56;;;;;;;;;;;;;;;13.05;57.40;100208.41;4987229;28;19922;-69
2022/11/12 07:23:21;;;;;;;;;;;;;;;13.01;57.42;100205.16;4965512;28;19985;-73
2022/11/12 07:25:53;;;;;;;;;;;;;;;12.98;57.36;100191.38;4982427;28;20348;-74
2022/11/12 07:28:18;;;;;;;;;;;;;;;12.94;57.03;100188.13;4982590;28;20398;-72
2022/11/12 07:30:44;;;;;;;;;;;;;;;12.92;56.70;100184.75;4991451;28;19924;-74
2022/11/12 07:33:09;;;;;;;;;;;;;;;12.90;56.68;100185.78;4982346;28;19954;-74
2022/11/12 07:35:34;;;;;;;;;;;;;;;12.88;56.78;100185.88;4973917;28;19980;-72
2022/11/12 07:37:59;;;;;;;;;;;;;;;12.88;56.68;100182.44;4965673;28;19977;-72
2022/11/12 07:40:25;;;;;;;;;;;;;;;12.87;56.58;100186.81;4982126;28;20057;-74
2022/11/12 07:42:50;;;;;;;;;;;;;;;12.89;56.55;100194.56;4965741;28;20379;-75
2022/11/12 07:45:15;;;;;;;;;;;;;;;12.89;56.60;100187.56;4999686;28;19914;-72
2022/11/12 07:47:41;;;;;;;;;;;;;;;12.92;56.34;100195.25;4977594;28;19933;-72
2022/11/12 07:50:06;;;;;;;;;;;;;;;12.96;56.14;100188.03;4982881;28;19914;-74
2022/11/12 07:52:32;;;;;;;;;;;;;;;12.96;56.17;100186.25;4993299;28;19917;-72
2022/11/12 07:54:57;;;;;;;;;;;;;;;13.04;57.33;100193.63;4995266;28;19995;-71
2022/11/12 07:57:22;;;;;;;;;;;;;;;13.19;59.03;100195.28;4969273;28;20005;-70
2022/11/12 07:59:48;;;;;;;;;;;;;;;13.30;57.63;100193.72;4969841;28;19945;-70
2022/11/12 08:02:13;;;;;;;;;;;;;;;13.39;57.05;100185.31;4995118;28;20380;-70
2022/11/12 08:04:38;;;;;;;;;;;;;;;13.48;56.32;100191.75;4985347;28;19925;-70
2022/11/12 08:07:04;;;;;;;;;;;;;;;13.55;56.15;100193.88;5001446;28;19918;-70
2022/11/12 08:09:29;;;;;;;;;;;;;;;13.67;55.74;100192.22;4985660;28;19928;-70
2022/11/12 08:11:54;;;;;;;;;;;;;;;13.86;55.12;100197.06;4986186;28;19919;-71
2022/11/12 08:14:20;;;;;;;;;;;;;;;14.23;57.78;100184.09;4977234;28;19976;-71
2022/11/12 08:16:45;;;;;;;;;;;;;;;14.64;58.91;100182.19;4995225;28;19992;-76
2022/11/12 08:19:11;;;;;;;;;;;;;;;15.09;57.26;100187.75;4994783;28;19922;-76
2022/11/12 08:21:36;;;;;;;;;;;;;;;15.38;56.89;100190.91;4994834;28;19924;-71
2022/11/12 08:24:01;;;;;;;;;;;;;;;15.59;54.27;100189.44;4994471;28;20393;-75
2022/11/12 08:26:27;;;;;;;;;;;;;;;15.72;53.37;100185.78;4982771;28;19919;-70
2022/11/12 08:28:52;;;;;;;;;;;;;;;15.84;52.33;100193.75;4992838;28;19917;-71
2022/11/12 08:31:18;;;;;;;;;;;;;;;15.93;53.65;100198.31;4985568;28;20283;-72
2022/11/12 08:33:44;;;;;;;;;;;;;;;16.26;53.21;100199.34;4968873;28;19976;-69
2022/11/12 08:36:09;;;;;;;;;;;;;;;16.63;53.46;100197.34;4984485;28;19923;-69
2022/11/12 08:38:35;;;;;;;;;;;;;;;16.63;53.11;100199.13;4976124;28;19960;-65
2022/11/12 08:41:00;;;;;;;;;;;;;;;16.66;52.49;100198.06;4994080;28;20008;-69
2022/11/12 08:43:26;;;;;;;;;;;;;;;16.49;51.06;100209.91;4994636;28;20343;-68
2022/11/12 08:45:51;;;;;;;;;;;;;;;16.27;50.41;100214.19;4994031;28;19921;-68
2022/11/12 08:48:16;;;;;;;;;;;;;;;16.06;50.63;100219.31;4994513;28;19925;-68
2022/11/12 08:50:42;;;;;;;;;;;;;;;15.82;50.73;100227.25;4985003;28;19918;-68
2022/11/12 08:53:10;;;;;;;;;;;;;;;15.63;50.92;100233.00;4994373;28;19917;-70
2022/11/12 08:55:35;;;;;;;;;;;;;;;15.46;51.14;100232.44;4975928;28;19992;-70
2022/11/12 08:58:01;;;;;;;;;;;;;;;15.30;51.47;100237.97;4984333;28;20390;-70
2022/11/12 09:00:32;;;;;;;;;;;;;;;15.14;51.87;100232.97;4992767;28;20356;-70
2022/11/12 09:03:01;;;;;;;;;;;;;;;15.00;51.87;100248.91;4968018;28;20308;-70
2022/11/12 09:05:26;;;;;;;;;;;;;;;14.84;52.27;100252.59;4974988;28;20016;-68
2022/11/12 09:07:58;;;;;;;;;;;;;;;14.73;52.46;100244.63;4984573;28;20012;-69
2022/11/12 09:10:23;;;;;;;;;;;;;;;14.78;56.90;100252.19;4987525;28;20460;-69
2022/11/12 09:12:52;;;;;;;;;;;;;;;14.73;55.39;100254.31;4994019;28;19922;-73
2022/11/12 09:15:17;;;;;;;;;;;;;;;14.67;54.51;100254.75;4993916;28;19924;-69
2022/11/12 09:17:43;;;;;;;;;;;;;;;14.56;54.00;100255.44;4993751;28;19918;-71
2022/11/12 09:20:08;;;;;;;;;;;;;;;14.50;53.90;100261.97;4984439;28;19968;-69
2022/11/12 09:22:33;;;;;;;;;;;;;;;14.51;56.29;100261.00;4984414;28;20377;-72
2022/11/12 09:24:59;;;;;;;;;;;;;;;14.51;56.41;100261.00;4984033;28;19926;-74
2022/11/12 09:27:27;;;;;;;;;;;;;;;14.52;57.02;100260.06;4990614;28;20440;-73
2022/11/12 09:29:52;;;;;;;;;;;;;;;14.51;56.20;100265.44;5008652;28;19957;-69
2022/11/12 09:32:18;;;;;;;;;;;;;;;14.48;55.77;100263.84;5009371;28;19976;-71
2022/11/12 09:34:43;;;;;;;;;;;;;;;14.50;55.61;100261.09;4992684;28;20385;-70
2022/11/12 09:37:08;;;;;;;;;;;;;;;14.48;55.54;100262.06;4994221;28;19922;-70
2022/11/12 09:39:34;;;;;;;;;;;;;;;14.47;55.51;100267.44;4992333;28;19929;-70
2022/11/12 09:41:59;;;;;;;;;;;;;;;14.44;55.61;100255.34;4989727;28;19922;-71
2022/11/12 09:44:24;;;;;;;;;;;;;;;14.45;55.28;100259.66;4973076;28;19989;-72
2022/11/12 09:46:51;;;;;;;;;;;;;;;14.44;55.25;100254.50;4989535;28;19925;-73
2022/11/12 09:49:24;;;;;;;;;;;;;;;14.43;55.43;100256.28;4972779;28;19918;-72
2022/11/12 09:51:50;;;;;;;;;;;;;;;14.43;55.60;100260.69;4973232;28;19926;-71
2022/11/12 09:54:26;;;;;;;;;;;;;;;14.41;55.47;100260.81;4989469;28;19924;-71
2022/11/12 09:56:51;;;;;;;;;;;;;;;14.38;55.42;100260.19;4972652;28;20317;-72
2022/11/12 09:59:17;;;;;;;;;;;;;;;14.35;55.65;100260.38;4989301;28;19922;-71
2022/11/12 10:01:54;;;;;;;;;;;;;;;14.34;55.53;100261.31;4956656;28;19917;-70
2022/11/12 10:04:22;;;;;;;;;;;;;;;14.35;55.53;100257.75;4989103;28;19918;-71
2022/11/12 10:07:07;;;;;;;;;;;;;;;14.33;55.39;100257.84;4973244;28;19925;-73
2022/11/12 10:09:42;;;;;;;;;;;;;;;14.28;55.66;100266.03;4974114;28;19922;-71
2022/11/12 10:12:40;;;;;;;;;;;;;;;14.26;55.63;100270.56;4973563;28;19925;-72
2022/11/12 10:18:07;;;;;;;;;;;;;;;14.20;55.91;100270.13;4990489;28;19925;-74
2022/11/12 10:20:42;;;;;;;;;;;;;;;14.16;55.98;100266.03;4970227;28;19922;-73
2022/11/12 10:23:15;;;;;;;;;;;;;;;14.16;55.92;100272.13;4961861;28;19928;-74
2022/11/12 10:25:44;;;;;;;;;;;;;;;14.15;55.94;100270.41;4998074;28;19918;-71
2022/11/12 10:28:24;;;;;;;;;;;;;;;14.14;55.97;100273.16;4973447;28;20602;-76
2022/11/12 10:30:50;;;;;;;;;;;;;;;14.11;55.89;100277.66;4964978;28;19925;-73
2022/11/12 10:33:15;;;;;;;;;;;;;;;14.11;56.14;100275.03;4982370;28;19918;-73
2022/11/12 10:35:40;;;;;;;;;;;;;;;14.09;56.03;100282.19;4974089;28;19918;-72
2022/11/12 10:38:09;;;;;;;;;;;;;;;14.08;56.08;100277.03;4982597;28;19926;-69
2022/11/12 10:40:35;;;;;;;;;;;;;;;14.07;56.21;100277.97;4963824;28;19929;-71
2022/11/12 10:43:00;;;;;;;;;;;;;;;14.03;56.16;100284.41;4974229;28;19929;-71
2022/11/12 10:45:26;;;;;;;;;;;;;;;14.00;56.45;100276.72;4992497;28;19918;-69
2022/11/12 10:47:51;;;;;;;;;;;;;;;14.01;56.58;100284.50;4991688;28;20013;-71
2022/11/12 10:50:18;;;;;;;;;;;;;;;13.99;56.66;100286.34;4991370;28;19941;-70
2022/11/12 10:52:57;;;;;;;;;;;;;;;13.97;56.65;100276.91;4975652;28;19918;-70
2022/11/12 10:55:35;;;;;;;;;;;;;;;13.93;56.83;100279.75;4991663;28;19924;-70
2022/11/12 10:58:04;;;;;;;;;;;;;;;13.92;56.91;100271.97;4975018;28;20016;-77
2022/11/12 11:00:30;;;;;;;;;;;;;;;13.89;57.12;100280.88;4991957;28;19930;-71
2022/11/12 11:02:55;;;;;;;;;;;;;;;13.87;57.29;100274.88;4975585;28;19973;-77
2022/11/12 11:05:34;;;;;;;;;;;;;;;13.87;57.45;100271.44;4973381;28;19918;-76
2022/11/12 11:08:00;;;;;;;;;;;;;;;13.87;57.65;100276.69;4991282;28;19949;-76
2022/11/12 11:10:35;;;;;;;;;;;;;;;13.87;57.70;100272.25;4975063;28;19917;-76
2022/11/12 11:13:20;;;;;;;;;;;;;;;13.93;57.84;100273.63;4992701;28;19918;-75
2022/11/12 11:16:04;;;;;;;;;;;;;;;13.98;57.78;100271.56;4993548;28;19918;-76
2022/11/12 11:18:30;;;;;;;;;;;;;;;14.01;57.67;100270.50;4975585;28;19976;-76
2022/11/12 11:21:02;;;;;;;;;;;;;;;14.02;57.51;100266.94;4975260;28;19917;-75
2022/11/12 11:23:36;;;;;;;;;;;;;;;14.00;57.83;100259.16;4976199;28;19932;-76
2022/11/12 11:26:06;;;;;;;;;;;;;;;14.00;57.76;100260.97;4992806;28;19968;-76
2022/11/12 11:28:48;;;;;;;;;;;;;;;14.00;57.73;100267.03;4992125;28;19917;-77
2022/11/12 11:31:32;;;;;;;;;;;;;;;14.02;57.83;100257.28;4993647;28;19922;-76
2022/11/12 11:34:00;;;;;;;;;;;;;;;14.06;58.17;100260.56;4991976;28;19925;-77
2022/11/12 11:36:38;;;;;;;;;;;;;;;14.05;58.24;100259.69;4991921;28;19918;-77
2022/11/12 11:39:23;;;;;;;;;;;;;;;14.07;58.16;100249.97;4975641;28;19969;-77
2022/11/12 11:42:06;;;;;;;;;;;;;;;14.10;58.25;100256.75;4974930;28;20461;-76
2022/11/12 11:44:39;;;;;;;;;;;;;;;14.11;58.05;100250.59;4992465;28;19922;-76
2022/11/12 11:47:25;;;;;;;;;;;;;;;14.14;58.06;100258.25;4975793;28;19961;-77
2022/11/12 11:50:08;;;;;;;;;;;;;;;14.16;57.93;100247.66;4975683;28;20001;-75
2022/11/12 11:52:34;;;;;;;;;;;;;;;14.16;57.95;100243.22;4992202;28;19925;-77
2022/11/12 11:55:14;;;;;;;;;;;;;;;14.16;57.93;100245.03;4978339;28;19926;-77
2022/11/12 11:57:46;;;;;;;;;;;;;;;14.14;57.90;100247.75;4973968;28;20447;-77
2022/11/12 12:00:16;;;;;;;;;;;;;;;14.12;57.87;100244.38;4956443;28;20021;-76
2022/11/12 12:02:41;;;;;;;;;;;;;;;14.13;57.66;100250.47;4972551;28;19918;-75
2022/11/12 12:05:07;;;;;;;;;;;;;;;14.12;57.63;100244.38;4973534;28;19925;-77
2022/11/12 12:07:36;;;;;;;;;;;;;;;14.12;57.83;100252.25;4973942;28;20426;-76
2022/11/12 12:10:16;;;;;;;;;;;;;;;14.13;57.56;100243.44;4972780;28;19918;-76
2022/11/12 12:12:59;;;;;;;;;;;;;;;14.15;57.69;100244.16;4956274;28;19925;-76
2022/11/12 12:15:30;;;;;;;;;;;;;;;14.19;57.53;100236.94;4972214;28;19980;-75
2022/11/12 12:18:08;;;;;;;;;;;;;;;14.22;57.39;100232.31;4973541;28;19918;-77
2022/11/12 12:20:40;;;;;;;;;;;;;;;14.28;57.22;100224.03;4956164;28;19918;-77
2022/11/12 12:23:09;;;;;;;;;;;;;;;14.34;57.21;100228.00;4956818;28;19941;-78
2022/11/12 12:25:36;;;;;;;;;;;;;;;14.40;56.92;100218.88;4972436;28;19918;-78
2022/11/12 12:28:04;;;;;;;;;;;;;;;14.42;56.76;100212.56;4972058;28;19918;-76
2022/11/12 12:30:29;;;;;;;;;;;;;;;14.45;56.73;100208.88;4973402;28;19970;-77
2022/11/12 12:33:05;;;;;;;;;;;;;;;14.45;56.70;100211.50;4959649;28;19954;-74
2022/11/12 12:35:35;;;;;;;;;;;;;;;14.44;56.56;100207.22;4959176;28;20309;-76
2022/11/12 12:38:04;;;;;;;;;;;;;;;14.42;56.58;100198.56;4959334;28;19922;-77
2022/11/12 12:40:48;;;;;;;;;;;;;;;14.42;56.61;100186.31;4976217;28;20017;-76
2022/11/12 12:43:27;;;;;;;;;;;;;;;14.39;56.52;100180.41;4959321;28;20412;-76
2022/11/12 12:45:53;;;;;;;;;;;;;;;14.34;56.61;100182.50;4975255;28;19921;-75
2022/11/12 12:48:19;;;;;;;;;;;;;;;14.30;56.56;100172.22;4975476;28;19917;-75
2022/11/12 12:50:44;;;;;;;;;;;;;;;14.28;56.68;100165.41;4958851;28;20388;-75
2022/11/12 12:53:16;;;;;;;;;;;;;;;14.26;56.69;100162.03;4975496;28;19933;-77
2022/11/12 12:55:42;;;;;;;;;;;;;;;14.22;56.57;100140.41;4976917;28;19914;-76
2022/11/12 12:58:22;;;;;;;;;;;;;;;14.21;56.46;100137.88;4975140;28;20068;-75